Claire A — TCRP2 — position and weather

sailwx.info

Track history (hours):
 
Tides and Currents Weather Stations Pressure Air Temp Water Temp Dewpoint Dewpoint Depression Visibility Wind Speed Wind Dir Waves Ship Positions

Claire A

Last reported at 2017-Nov-18 06:30 UTC. Time now 2017-Nov-19 20:00 UTC.
Position N 36°01' W 005°09'.

Length 184 m; draft 8.8 m.

Type: Ship (hazmat cat A). MMSI: 271001092.

Date/timePositionNaut miles runAvg speedWind from/ knotsBaromVisibWave heightAir tempDewpointWater temp
2017-Nov-18 06:30N 36°01' W 005°09'713.3
2017-Nov-18 06:00N 36°00' W 005°17'713.6
2017-Nov-18 05:30N 35°58' W 005°25'  
2017-Nov-14 23:28N 35°54' W 005°33'2 0.9
2017-Nov-14 20:43N 35°56' W 005°33'2 7.9
2017-Nov-14 20:30N 35°58' W 005°33'4 8.5
2017-Nov-14 20:00N 35°59' W 005°28'4 7.0
2017-Nov-14 19:30N 36°00' W 005°23'3 6.8
2017-Nov-14 19:00N 36°01' W 005°19'3 6.5
2017-Nov-14 18:30N 36°01' W 005°15'3 0.4
2017-Nov-14 12:38N 36°00' W 005°12'111.5
2017-Nov-14 12:30N 36°02' W 005°13'  
2017-Nov-11 11:06N 36°43' E 014°05'1212.9
2017-Nov-11 10:12N 36°40' E 014°18'312.7
2017-Nov-11 10:00N 36°39' E 014°22'612.7
2017-Nov-11 09:30N 36°38' E 014°29'612.3
2017-Nov-11 09:00N 36°36' E 014°36'612.3
2017-Nov-11 08:30N 36°35' E 014°44'612.6
2017-Nov-11 08:00N 36°34' E 014°52'612.8
2017-Nov-11 07:30N 36°34' E 014°60'42411.4
2017-Nov-09 18:17N 37°29' E 023°46'412.4
2017-Nov-09 17:59N 37°32' E 023°45'612.1
2017-Nov-09 17:30N 37°38' E 023°43'611.9
2017-Nov-09 17:01N 37°44' E 023°40'612.3
2017-Nov-09 16:31N 37°49' E 023°37'612.5
2017-Nov-09 16:00N 37°55' E 023°37'2 4.2
2017-Nov-09 15:30N 37°57' E 023°36'0 0.0
2017-Nov-09 14:59N 37°57' E 023°36'0 0.0
2017-Nov-09 14:29N 37°57' E 023°36'0 0.0
2017-Nov-09 13:58N 37°57' E 023°36'0 0.0
2017-Nov-09 13:28N 37°57' E 023°36'0 0.0
2017-Nov-09 12:58N 37°57' E 023°36'0 0.0
2017-Nov-09 12:28N 37°57' E 023°36'0 0.0
2017-Nov-09 12:01N 37°57' E 023°36'0 0.0
2017-Nov-09 11:30N 37°57' E 023°36'0 0.0
2017-Nov-09 11:00N 37°57' E 023°36'0 0.0
2017-Nov-09 10:30N 37°57' E 023°36'0 0.0
2017-Nov-09 10:00N 37°57' E 023°36'0 0.0
2017-Nov-09 09:29N 37°57' E 023°36'0 0.0
2017-Nov-09 08:56N 37°57' E 023°36'0 0.0
2017-Nov-09 08:29N 37°57' E 023°36'0 0.0
2017-Nov-09 07:59N 37°57' E 023°36'0 0.0
2017-Nov-09 07:29N 37°57' E 023°36'0 0.9
2017-Nov-09 07:00N 37°57' E 023°36'2 3.2
2017-Nov-09 06:30N 37°55' E 023°36'3 5.9
2017-Nov-09 06:00N 37°53' E 023°34'1 1.4
2017-Nov-09 05:29N 37°52' E 023°33'0 0.1
2017-Nov-09 04:59N 37°52' E 023°33'0 0.0
2017-Nov-09 04:29N 37°52' E 023°33'0 0.0
2017-Nov-09 03:59N 37°52' E 023°33'0 0.1
2017-Nov-09 03:29N 37°52' E 023°33'0 0.0
2017-Nov-09 02:58N 37°52' E 023°33'0 0.0
2017-Nov-09 02:28N 37°52' E 023°33'0 0.0
2017-Nov-09 01:58N 37°52' E 023°33'0 0.0
2017-Nov-09 01:28N 37°52' E 023°33'0 0.0
2017-Nov-09 01:00N 37°52' E 023°33'0 0.0
2017-Nov-09 00:30N 37°52' E 023°33'0 0.0
2017-Nov-09 00:00N 37°52' E 023°33'0 0.0
2017-Nov-08 23:30N 37°52' E 023°33'0 0.0
2017-Nov-08 23:00N 37°52' E 023°33'0 0.0
2017-Nov-08 22:29N 37°52' E 023°33'0 0.0
2017-Nov-08 21:59N 37°52' E 023°33'0 0.0
2017-Nov-08 21:29N 37°52' E 023°33'0 0.0
2017-Nov-08 20:59N 37°52' E 023°33'0 0.0
2017-Nov-08 20:29N 37°52' E 023°33'0 0.0
2017-Nov-08 19:58N 37°52' E 023°33'0 0.1
2017-Nov-08 19:28N 37°52' E 023°33'0 0.0
2017-Nov-08 18:58N 37°52' E 023°33'0 0.0
2017-Nov-08 18:28N 37°52' E 023°33'0 0.0
2017-Nov-08 18:00N 37°52' E 023°33'0 0.1
2017-Nov-08 17:30N 37°52' E 023°33'0 0.1
2017-Nov-08 17:00N 37°53' E 023°33'0 0.0
2017-Nov-08 16:30N 37°53' E 023°33'0 0.2
2017-Nov-08 16:00N 37°52' E 023°33'3 5.1
2017-Nov-08 15:30N 37°52' E 023°36'4 8.9
2017-Nov-08 15:00N 37°49' E 023°40'511.0
2017-Nov-08 14:30N 37°44' E 023°43'510.7
2017-Nov-08 14:00N 37°39' E 023°47'611.0
2017-Nov-08 13:27N 37°37' E 023°54'  
Track history (hours):
 
Tides and Currents Weather Stations Pressure Air Temp Water Temp Dewpoint Dewpoint Depression Visibility Wind Speed Wind Dir Waves Ship Positions

Claire A

Last reported at 2017-Nov-18 06:30 UTC. Time now 2017-Nov-19 20:00 UTC.
Position N 36°01' W 005°09'.

Length 184 m; draft 8.8 m.

Type: Ship (hazmat cat A). MMSI: 271001092.

Date/timePositionNaut miles runAvg speedWind from/ knotsBaromVisibWave heightAir tempDewpointWater temp
2017-Nov-18 06:30N 36°01' W 005°09'713.3
2017-Nov-18 06:00N 36°00' W 005°17'713.6
2017-Nov-18 05:30N 35°58' W 005°25'  
2017-Nov-14 23:28N 35°54' W 005°33'2 0.9
2017-Nov-14 20:43N 35°56' W 005°33'2 7.9
2017-Nov-14 20:30N 35°58' W 005°33'4 8.5
2017-Nov-14 20:00N 35°59' W 005°28'4 7.0
2017-Nov-14 19:30N 36°00' W 005°23'3 6.8
2017-Nov-14 19:00N 36°01' W 005°19'3 6.5
2017-Nov-14 18:30N 36°01' W 005°15'3 0.4
2017-Nov-14 12:38N 36°00' W 005°12'111.5
2017-Nov-14 12:30N 36°02' W 005°13'  
2017-Nov-11 11:06N 36°43' E 014°05'1212.9
2017-Nov-11 10:12N 36°40' E 014°18'312.7
2017-Nov-11 10:00N 36°39' E 014°22'612.7
2017-Nov-11 09:30N 36°38' E 014°29'612.3
2017-Nov-11 09:00N 36°36' E 014°36'612.3
2017-Nov-11 08:30N 36°35' E 014°44'612.6
2017-Nov-11 08:00N 36°34' E 014°52'612.8
2017-Nov-11 07:30N 36°34' E 014°60'42411.4
2017-Nov-09 18:17N 37°29' E 023°46'412.4
2017-Nov-09 17:59N 37°32' E 023°45'612.1
2017-Nov-09 17:30N 37°38' E 023°43'611.9
2017-Nov-09 17:01N 37°44' E 023°40'612.3
2017-Nov-09 16:31N 37°49' E 023°37'612.5
2017-Nov-09 16:00N 37°55' E 023°37'2 4.2
2017-Nov-09 15:30N 37°57' E 023°36'0 0.0
2017-Nov-09 14:59N 37°57' E 023°36'0 0.0
2017-Nov-09 14:29N 37°57' E 023°36'0 0.0
2017-Nov-09 13:58N 37°57' E 023°36'0 0.0
2017-Nov-09 13:28N 37°57' E 023°36'0 0.0
2017-Nov-09 12:58N 37°57' E 023°36'0 0.0
2017-Nov-09 12:28N 37°57' E 023°36'0 0.0
2017-Nov-09 12:01N 37°57' E 023°36'0 0.0
2017-Nov-09 11:30N 37°57' E 023°36'0 0.0
2017-Nov-09 11:00N 37°57' E 023°36'0 0.0
2017-Nov-09 10:30N 37°57' E 023°36'0 0.0
2017-Nov-09 10:00N 37°57' E 023°36'0 0.0
2017-Nov-09 09:29N 37°57' E 023°36'0 0.0
2017-Nov-09 08:56N 37°57' E 023°36'0 0.0
2017-Nov-09 08:29N 37°57' E 023°36'0 0.0
2017-Nov-09 07:59N 37°57' E 023°36'0 0.0
2017-Nov-09 07:29N 37°57' E 023°36'0 0.9
2017-Nov-09 07:00N 37°57' E 023°36'2 3.2
2017-Nov-09 06:30N 37°55' E 023°36'3 5.9
2017-Nov-09 06:00N 37°53' E 023°34'1 1.4
2017-Nov-09 05:29N 37°52' E 023°33'0 0.1
2017-Nov-09 04:59N 37°52' E 023°33'0 0.0
2017-Nov-09 04:29N 37°52' E 023°33'0 0.0
2017-Nov-09 03:59N 37°52' E 023°33'0 0.1
2017-Nov-09 03:29N 37°52' E 023°33'0 0.0
2017-Nov-09 02:58N 37°52' E 023°33'0 0.0
2017-Nov-09 02:28N 37°52' E 023°33'0 0.0
2017-Nov-09 01:58N 37°52' E 023°33'0 0.0
2017-Nov-09 01:28N 37°52' E 023°33'0 0.0
2017-Nov-09 01:00N 37°52' E 023°33'0 0.0
2017-Nov-09 00:30N 37°52' E 023°33'0 0.0
2017-Nov-09 00:00N 37°52' E 023°33'0 0.0
2017-Nov-08 23:30N 37°52' E 023°33'0 0.0
2017-Nov-08 23:00N 37°52' E 023°33'0 0.0
2017-Nov-08 22:29N 37°52' E 023°33'0 0.0
2017-Nov-08 21:59N 37°52' E 023°33'0 0.0
2017-Nov-08 21:29N 37°52' E 023°33'0 0.0
2017-Nov-08 20:59N 37°52' E 023°33'0 0.0
2017-Nov-08 20:29N 37°52' E 023°33'0 0.0
2017-Nov-08 19:58N 37°52' E 023°33'0 0.1
2017-Nov-08 19:28N 37°52' E 023°33'0 0.0
2017-Nov-08 18:58N 37°52' E 023°33'0 0.0
2017-Nov-08 18:28N 37°52' E 023°33'0 0.0
2017-Nov-08 18:00N 37°52' E 023°33'0 0.1
2017-Nov-08 17:30N 37°52' E 023°33'0 0.1
2017-Nov-08 17:00N 37°53' E 023°33'0 0.0
2017-Nov-08 16:30N 37°53' E 023°33'0 0.2
2017-Nov-08 16:00N 37°52' E 023°33'3 5.1
2017-Nov-08 15:30N 37°52' E 023°36'4 8.9
2017-Nov-08 15:00N 37°49' E 023°40'511.0
2017-Nov-08 14:30N 37°44' E 023°43'510.7
2017-Nov-08 14:00N 37°39' E 023°47'611.0
2017-Nov-08 13:27N 37°37' E 023°54'  

Dump ship's entire track history